Accueil
METAR-TAF:

METAR-TAF

Aéroports :

Aéroport international de Khartoum

Khartoum, Soudan

latitude: 15-36N, longitude: 032-33E, altitude: 382 m

Observation

Le bulletin a été fait il y a 17 minutes, à 11:00 UTC
Vent 16 kt de est/sud-est
Température 32°C
Humidité 49%
Pression 1011 hPa
Visibilité 10 km ou plus
Nuages épars à une hauteur de 5000 ft

METAR: HSSS 201100Z 12016KT 9999 SCT050 32/20 Q1011 TEMPO SCT040CB SCT140

Heure: 14:17 (11:17 UTC)

Prévision

Le bulletin a été fait il y a 6 heures et 17 minutes, à 05:00 UTC
Prévision valable du 20 à 06 UTC au 21 à 12 UTC
Vent 8 kt de sud avec des rafales jusqu'à 18 kt
Visibilité 10 km ou plus
Quelques nuages à une hauteur de 4000 ft
Nuages épars à une hauteur de 14000 ft
Temporairement
du 20 à 15 UTC au 20 à 18 UTC
Visibilité: 6000 m
Quelques nuages à une hauteur de 4500 ft, Cumulonimbus.
orage, pluie

TAF: HSSS 200500Z 2006/2112 17008G18KT 9999 FEW040 SCT140 TEMPO 2015/2018 6000 TSRA FEW045CB

Observations et prévisions météorologiques de plus de 4000 aéroports (messages METAR et TAF).

Les stations disponibles sont représentées par des disques jaunes et rouges sur la carte.

Passer la souris dessus pour voir le nom de la station.

Cliquer dessus pour voir les observations et prévisions météorologiques.

Pour changer de carte: cliquez sur les boutons verts avec une croix noire pour zoomer, sur le bouton vert avec un tiret pour effectuer un zoom arrière, ou sur les flèches vertes pour les cartes adjacentes.


METAR-TAF: